Breckenridge, Minnesota
Current Conditions -  °F | °C
As of 3:15 AM on Monday 22 Dec 2014 (Local Time) from KBWP Reporting Station
Overcast Overcast  
Wind Chill: 25°   Ceiling: 300
Heat Index: 34°   Visibility: 1.7mi
Dew Point: 32°   Wind: 13mph
Humidity: 93%   Direction: 140°SE
Pressure: 29.51"   Gusts: 18mph
Location:  46.26°N, 96.59°W
Report Text: KBWP 220915Z AUTO 14011G16KT 1 3/4SM OVC003 01/00 A2951 RMK AO1 P0001
Loading
Personal Weather Stations






























Interactive Weather Map New forecast layout! Learn more

10-Day Weather Forecast

Advertisements
Track Severe Weather on mobile